Time;durP1;ratioP1;P1;durP2;ratioP2;P2;SDS_P1;SDS_P2;PMS_P1;PMS_P2;Temp;Humidity;BMP_temperature;BMP_pressure;BME280_temperature;BME280_humidity;BME280_pressure;Samples;Min_cycle;Max_cycle;Signal;HPM_P1;HPM_P2
2022/11/09 00:01:19;;;;;;;4.55;2.45;;;;;;;18.90;54.07;100321.22;5083735;28;20032;-58
2022/11/09 00:03:44;;;;;;;4.53;2.38;;;;;;;19.46;53.79;100407.06;5083239;28;20028;-58
2022/11/09 00:06:10;;;;;;;3.40;2.20;;;;;;;19.43;54.21;100396.66;5065855;28;20017;-58
2022/11/09 00:08:36;;;;;;;3.50;2.28;;;;;;;19.44;53.88;100399.16;5083962;28;20024;-59
2022/11/09 00:11:03;;;;;;;4.97;2.65;;;;;;;19.37;53.85;100381.19;5083814;28;20021;-57
2022/11/09 00:13:29;;;;;;;5.13;2.47;;;;;;;19.44;53.58;100390.22;5083440;28;20029;-59
2022/11/09 00:15:57;;;;;;;4.63;2.20;;;;;;;19.43;53.90;100385.88;5083175;28;20035;-58
2022/11/09 00:18:23;;;;;;;4.70;2.33;;;;;;;19.44;54.01;100390.22;5077835;28;20090;-58
2022/11/09 00:20:48;;;;;;;3.95;2.47;;;;;;;19.43;54.24;100394.78;5083220;28;20040;-58
2022/11/09 00:23:14;;;;;;;3.72;2.28;;;;;;;19.40;53.80;100389.75;5081523;28;20111;-59
2022/11/09 00:25:39;;;;;;;3.95;2.20;;;;;;;19.42;54.12;100393.13;5083183;28;20058;-59
2022/11/09 00:28:05;;;;;;;3.63;2.38;;;;;;;19.42;53.73;100390.44;5083646;28;20024;-59
2022/11/09 00:30:30;;;;;;;4.28;2.33;;;;;;;19.42;54.22;100397.69;5083395;28;20039;-59
2022/11/09 00:32:55;;;;;;;4.05;2.15;;;;;;;19.39;53.91;100392.66;5082841;28;20028;-59
2022/11/09 00:35:20;;;;;;;4.75;2.13;;;;;;;19.41;54.25;100402.25;5082971;28;20033;-60
2022/11/09 00:37:46;;;;;;;3.45;2.17;;;;;;;19.40;54.16;100400.53;5083576;28;20506;-59
2022/11/09 00:40:12;;;;;;;3.65;2.08;;;;;;;19.40;54.14;100402.41;5083434;28;20043;-59
2022/11/09 00:42:37;;;;;;;3.03;2.20;;;;;;;19.40;54.20;100399.72;5083009;28;20104;-59
2022/11/09 00:45:02;;;;;;;5.68;2.60;;;;;;;19.38;54.28;100399.91;5083146;28;20074;-59
2022/11/09 00:47:28;;;;;;;3.40;2.28;;;;;;;19.40;54.21;100399.72;5073269;28;20027;-58
2022/11/09 00:49:53;;;;;;;3.40;2.10;;;;;;;19.38;54.08;100390.97;5062947;28;20025;-56
2022/11/09 00:52:18;;;;;;;4.07;2.40;;;;;;;19.38;53.92;100401.75;5062905;28;20025;-59
2022/11/09 00:54:43;;;;;;;4.35;2.28;;;;;;;19.38;53.98;100408.00;5063114;28;20064;-58
2022/11/09 00:57:11;;;;;;;3.30;1.60;;;;;;;19.37;54.12;100408.16;5063446;28;20036;-59
2022/11/09 00:59:36;;;;;;;3.30;1.88;;;;;;;19.38;54.16;100404.47;5062644;28;20108;-59
2022/11/09 01:02:01;;;;;;;2.80;1.92;;;;;;;19.35;54.07;100405.66;5062888;28;20032;-58
2022/11/09 01:04:27;;;;;;;4.03;2.33;;;;;;;18.92;54.06;100348.81;5062807;28;20044;-57
2022/11/09 01:06:52;;;;;;;3.72;2.13;;;;;;;19.37;54.26;100409.03;5082607;28;20031;-58
2022/11/09 01:09:17;;;;;;;3.92;1.95;;;;;;;19.37;54.21;100402.75;5082957;28;20025;-57
2022/11/09 01:11:42;;;;;;;4.65;2.30;;;;;;;19.36;54.06;100403.78;5083170;28;20032;-58
2022/11/09 01:14:08;;;;;;;3.60;2.20;;;;;;;19.36;54.24;100403.78;5082666;28;20029;-57
2022/11/09 01:16:33;;;;;;;3.50;2.00;;;;;;;19.27;54.08;100384.16;5062897;28;20039;-58
2022/11/09 01:18:59;;;;;;;4.00;1.92;;;;;;;19.35;53.87;100396.72;5062294;28;20049;-58
2022/11/09 01:21:25;;;;;;;2.25;1.92;;;;;;;19.34;54.07;100393.19;5062763;28;20025;-58
2022/11/09 01:23:50;;;;;;;2.63;2.10;;;;;;;19.34;53.96;100387.81;5062374;28;20028;-58
2022/11/09 01:26:16;;;;;;;2.72;1.75;;;;;;;19.34;54.03;100400.47;5062911;28;20058;-58
2022/11/09 01:28:41;;;;;;;3.55;1.95;;;;;;;19.34;54.16;100403.16;5062940;28;20078;-58
2022/11/09 01:31:11;;;;;;;3.17;2.10;;;;;;;19.33;54.19;100402.31;5062373;28;20025;-57
2022/11/09 01:33:36;;;;;;;3.15;2.00;;;;;;;19.33;53.97;100398.78;5062255;28;20119;-59
2022/11/09 01:36:06;;;;;;;3.33;1.67;;;;;;;19.32;54.02;100397.94;5062396;28;20036;-58
2022/11/09 01:38:32;;;;;;;3.83;2.30;;;;;;;19.32;54.16;100391.69;5062969;28;20056;-59
2022/11/09 01:40:57;;;;;;;2.40;2.03;;;;;;;19.28;53.93;100403.88;5062532;28;20029;-59
2022/11/09 01:43:23;;;;;;;2.60;1.95;;;;;;;19.31;53.79;100403.50;5062626;28;20037;-58
2022/11/09 01:45:51;;;;;;;2.53;1.70;;;;;;;19.20;53.78;100388.63;5060971;28;20413;-58
2022/11/09 01:48:33;;;;;;;3.78;2.00;;;;;;;19.25;54.01;100397.00;5050827;28;20037;-58
2022/11/09 01:51:04;;;;;;;2.53;1.85;;;;;;;19.31;54.10;100407.03;5048093;28;20040;-58
2022/11/09 01:53:32;;;;;;;3.35;2.00;;;;;;;19.30;54.08;100405.38;5066211;28;20108;-58
2022/11/09 01:56:00;;;;;;;2.75;1.88;;;;;;;19.20;54.14;100396.72;5066095;28;20171;-57
2022/11/09 01:59:06;;;;;;;3.33;2.58;;;;;;;19.29;54.12;100398.31;5065993;28;20159;-59
2022/11/09 02:01:31;;;;;;;2.65;1.60;;;;;;;19.29;54.17;100401.00;5023411;28;20137;-56
2022/11/09 02:04:04;;;;;;;3.00;1.90;;;;;;;19.29;53.79;100408.25;5023535;28;20041;-58
2022/11/09 02:06:29;;;;;;;3.03;1.90;;;;;;;19.29;53.94;100410.97;5023477;28;20049;-59
2022/11/09 02:09:00;;;;;;;3.63;2.53;;;;;;;19.22;54.00;100390.13;5006840;28;20033;-59
2022/11/09 02:11:26;;;;;;;2.40;1.88;;;;;;;19.27;53.99;100400.34;5023435;28;20076;-59
2022/11/09 02:13:56;;;;;;;4.03;2.17;;;;;;;19.27;54.17;100396.81;5023164;28;20037;-58
2022/11/09 02:16:21;;;;;;;3.40;1.60;;;;;;;19.25;53.79;100402.41;5022439;28;20057;-58
2022/11/09 02:18:57;;;;;;;2.95;1.90;;;;;;;19.27;54.20;100407.59;5022567;28;20069;-59
2022/11/09 02:21:24;;;;;;;2.30;1.98;;;;;;;19.27;53.81;100404.91;5023218;28;20029;-59
2022/11/09 02:23:50;;;;;;;2.55;1.60;;;;;;;19.26;54.17;100412.16;5023146;28;20753;-59
2022/11/09 02:26:20;;;;;;;3.38;1.92;;;;;;;19.25;53.78;100405.09;5022766;28;20045;-58
2022/11/09 02:28:46;;;;;;;2.85;2.20;;;;;;;19.24;54.08;100395.31;5023235;28;20037;-59
2022/11/09 02:31:13;;;;;;;2.97;2.13;;;;;;;19.25;53.74;100405.09;5027025;28;20042;-57
2022/11/09 02:34:00;;;;;;;3.60;2.00;;;;;;;19.25;54.08;100412.34;5085117;28;20028;-58
2022/11/09 02:36:25;;;;;;;3.20;1.90;;;;;;;19.09;53.86;100383.69;5067320;28;20099;-59
2022/11/09 02:38:52;;;;;;;3.10;2.00;;;;;;;19.25;53.98;100409.66;5067270;28;20025;-58
2022/11/09 02:41:18;;;;;;;2.60;1.50;;;;;;;19.23;53.82;100407.13;5085452;28;20119;-61
2022/11/09 02:43:43;;;;;;;2.45;1.70;;;;;;;19.23;53.86;100407.94;5067194;28;20416;-58
2022/11/09 02:46:08;;;;;;;2.53;1.58;;;;;;;19.23;53.77;100396.34;5066657;28;20032;-59
2022/11/09 02:48:33;;;;;;;2.58;1.92;;;;;;;19.23;54.11;100394.47;5084458;28;20024;-58
2022/11/09 02:50:59;;;;;;;2.50;1.73;;;;;;;19.22;53.86;100391.97;5084926;28;20078;-59
2022/11/09 02:53:24;;;;;;;3.83;1.80;;;;;;;19.22;53.85;100400.06;5085033;28;20081;-58
2022/11/09 02:55:49;;;;;;;1.90;1.50;;;;;;;19.22;53.86;100408.16;5067023;28;20099;-59
2022/11/09 02:58:15;;;;;;;2.47;1.40;;;;;;;19.20;53.77;100411.03;5067082;28;20032;-58
2022/11/09 03:00:40;;;;;;;1.70;1.52;;;;;;;19.19;54.09;100419.28;5083882;28;20434;-58
2022/11/09 03:03:06;;;;;;;2.97;1.65;;;;;;;19.19;54.20;100416.59;5084649;28;20031;-59
2022/11/09 03:05:31;;;;;;;2.67;1.63;;;;;;;19.20;54.11;100407.50;5084547;28;20032;-58
2022/11/09 03:07:56;;;;;;;2.90;1.60;;;;;;;19.20;53.87;100412.91;5084881;28;20495;-57
2022/11/09 03:10:22;;;;;;;2.78;1.67;;;;;;;19.19;53.89;100414.72;5084594;28;20020;-58
2022/11/09 03:12:47;;;;;;;2.15;1.60;;;;;;;19.05;54.23;100395.84;5081287;28;20021;-58
2022/11/09 03:15:12;;;;;;;2.72;1.50;;;;;;;19.20;53.80;100412.91;5064323;28;20033;-58
2022/11/09 03:17:38;;;;;;;2.92;1.70;;;;;;;19.11;54.00;100392.41;5064428;28;20051;-58
2022/11/09 03:20:04;;;;;;;1.73;1.38;;;;;;;19.17;53.86;100406.00;5063915;28;20049;-58
2022/11/09 03:22:29;;;;;;;2.75;1.70;;;;;;;19.16;53.70;100415.13;5064323;28;20048;-58
2022/11/09 03:24:54;;;;;;;2.10;1.85;;;;;;;19.18;53.77;100425.69;5064414;28;20024;-58
2022/11/09 03:27:19;;;;;;;2.00;1.52;;;;;;;19.18;54.06;100431.09;5065008;28;20417;-59
2022/11/09 03:29:45;;;;;;;2.97;1.73;;;;;;;19.17;53.81;100426.72;5063793;28;20067;-58
2022/11/09 03:32:10;;;;;;;3.40;1.50;;;;;;;19.06;54.08;100401.03;5064393;28;20035;-59
2022/11/09 03:34:35;;;;;;;2.78;1.50;;;;;;;19.15;53.79;100412.56;5063765;28;20084;-58
2022/11/09 03:37:00;;;;;;;2.08;1.30;;;;;;;19.17;53.71;100397.09;5046561;28;20400;-58
2022/11/09 03:39:26;;;;;;;2.15;1.52;;;;;;;19.16;54.03;100408.88;5064087;28;20029;-58
2022/11/09 03:41:51;;;;;;;5.63;1.92;;;;;;;19.16;53.88;100419.66;5063943;28;20029;-58
2022/11/09 03:44:16;;;;;;;4.13;1.70;;;;;;;19.14;53.93;100416.31;5080848;28;20076;-56
2022/11/09 03:46:41;;;;;;;2.80;1.55;;;;;;;19.16;54.18;100430.44;5083690;28;20035;-58
2022/11/09 03:49:07;;;;;;;1.88;1.45;;;;;;;19.15;53.82;100434.97;5083637;28;20029;-58
2022/11/09 03:51:32;;;;;;;2.50;1.50;;;;;;;19.14;54.07;100433.31;5083385;28;20029;-59
2022/11/09 03:53:57;;;;;;;2.47;1.60;;;;;;;19.15;54.07;100436.81;5083878;28;20035;-58
2022/11/09 03:56:22;;;;;;;2.63;1.58;;;;;;;19.13;54.05;100437.03;5083674;28;20115;-58
2022/11/09 03:58:48;;;;;;;1.98;1.33;;;;;;;19.14;54.18;100437.84;5083854;28;20025;-58
2022/11/09 04:01:13;;;;;;;2.13;1.42;;;;;;;19.13;53.83;100433.50;5083287;28;20066;-59
2022/11/09 04:03:38;;;;;;;2.15;1.55;;;;;;;19.13;54.00;100433.50;5083514;28;20032;-59
2022/11/09 04:06:04;;;;;;;2.30;1.40;;;;;;;19.12;54.00;100438.06;5083487;28;20020;-58
2022/11/09 04:08:29;;;;;;;2.55;1.45;;;;;;;19.11;53.94;100436.34;5084027;28;20064;-59
2022/11/09 04:10:54;;;;;;;2.22;1.73;;;;;;;19.07;53.80;100428.81;5065040;28;20040;-59
2022/11/09 04:13:20;;;;;;;2.95;1.80;;;;;;;19.08;54.09;100434.03;5078040;28;20024;-58
2022/11/09 04:15:45;;;;;;;2.10;1.58;;;;;;;19.05;53.65;100429.00;5082972;28;20028;-58
2022/11/09 04:18:13;;;;;;;2.30;1.67;;;;;;;19.12;53.84;100448.00;5083581;28;20035;-58
2022/11/09 04:20:38;;;;;;;2.35;1.50;;;;;;;19.11;53.91;100443.59;5083226;28;20066;-58
2022/11/09 04:23:05;;;;;;;1.58;1.35;;;;;;;19.11;53.75;100447.13;5083498;28;20043;-58
2022/11/09 04:25:32;;;;;;;2.63;1.50;;;;;;;19.10;54.19;100450.84;5083371;28;20033;-58
2022/11/09 04:27:58;;;;;;;2.75;1.48;;;;;;;19.10;53.93;100453.53;5083638;28;20025;-58
2022/11/09 04:30:26;;;;;;;1.88;1.38;;;;;;;19.09;54.18;100451.88;5083157;28;20090;-58
2022/11/09 04:32:52;;;;;;;2.05;1.38;;;;;;;19.10;53.88;100447.31;5083378;28;20039;-58
2022/11/09 04:35:17;;;;;;;1.55;1.33;;;;;;;19.09;53.83;100456.44;5081048;28;20028;-58
2022/11/09 04:37:43;;;;;;;3.00;1.60;;;;;;;19.07;54.01;100461.16;5072686;28;20045;-58
2022/11/09 04:40:09;;;;;;;2.97;1.60;;;;;;;19.08;53.83;100461.00;5063317;28;20084;-58
2022/11/09 04:42:34;;;;;;;2.28;1.42;;;;;;;19.09;54.02;100467.22;5063207;28;20036;-58
2022/11/09 04:44:59;;;;;;;2.47;1.30;;;;;;;19.08;53.82;100477.16;5063054;28;20088;-59
2022/11/09 04:47:24;;;;;;;2.45;1.50;;;;;;;19.07;53.86;100477.31;5063335;28;20649;-57
2022/11/09 04:49:50;;;;;;;2.05;1.60;;;;;;;19.07;53.82;100486.22;5061039;28;20039;-59
2022/11/09 04:52:15;;;;;;;1.95;1.42;;;;;;;19.07;53.68;100488.09;5063194;28;20029;-59
2022/11/09 04:54:40;;;;;;;2.55;1.65;;;;;;;19.07;54.00;100485.41;5063253;28;20099;-59
2022/11/09 04:57:05;;;;;;;1.77;1.35;;;;;;;19.06;53.71;100491.81;5045465;28;20033;-59
2022/11/09 04:59:31;;;;;;;2.33;1.42;;;;;;;19.06;53.70;100486.44;5062883;28;20052;-57
2022/11/09 05:01:56;;;;;;;3.00;1.48;;;;;;;18.95;54.11;100475.06;5062815;28;20056;-58
2022/11/09 05:04:21;;;;;;;3.33;1.60;;;;;;;19.06;54.09;100481.88;5071736;28;20032;-58
2022/11/09 05:06:46;;;;;;;2.60;1.27;;;;;;;19.06;53.87;100476.47;5073338;28;20035;-57
2022/11/09 05:09:11;;;;;;;1.80;1.38;;;;;;;19.05;54.08;100482.91;5072925;28;20029;-56
2022/11/09 05:11:37;;;;;;;1.85;1.30;;;;;;;19.05;53.85;100482.91;5053998;28;20542;-58
2022/11/09 05:14:03;;;;;;;4.85;1.77;;;;;;;19.03;53.91;100487.63;5072521;28;20249;-56
2022/11/09 05:16:28;;;;;;;2.58;1.33;;;;;;;19.05;54.24;100482.06;5073170;28;20119;-59
2022/11/09 05:18:54;;;;;;;2.40;1.50;;;;;;;19.04;53.92;100488.47;5071870;28;20048;-58
2022/11/09 05:21:19;;;;;;;2.08;1.30;;;;;;;19.04;53.85;100485.78;5071610;28;20112;-58
2022/11/09 05:24:00;;;;;;;4.20;1.70;;;;;;;19.04;53.90;100483.91;5075924;28;20336;-58
2022/11/09 05:26:30;;;;;;;3.25;1.30;;;;;;;18.94;53.82;100470.66;5061407;28;20051;-58
2022/11/09 05:28:57;;;;;;;1.73;1.30;;;;;;;18.98;54.09;100482.75;5076387;28;20377;-59
2022/11/09 05:31:23;;;;;;;2.63;1.30;;;;;;;19.03;53.91;100484.94;5077281;28;20036;-58
2022/11/09 05:33:50;;;;;;;2.67;1.48;;;;;;;19.03;54.00;100486.78;5074346;28;20028;-59
2022/11/09 05:36:15;;;;;;;2.45;1.50;;;;;;;19.03;53.90;100490.34;5075028;28;20017;-59
2022/11/09 05:38:40;;;;;;;1.95;1.33;;;;;;;19.01;54.07;100488.81;5075961;28;20035;-59
2022/11/09 05:41:06;;;;;;;4.45;2.40;;;;;;;19.03;53.96;100493.03;5074727;28;20037;-59
2022/11/09 05:43:31;;;;;;;2.03;1.27;;;;;;;18.98;53.99;100479.22;5074201;28;20032;-59
2022/11/09 05:45:56;;;;;;;2.13;1.45;;;;;;;19.03;54.18;100490.34;5065762;28;20037;-59
2022/11/09 05:48:21;;;;;;;2.30;1.30;;;;;;;19.00;54.14;100492.53;5068995;28;20029;-60
2022/11/09 05:50:47;;;;;;;3.30;1.25;;;;;;;19.03;53.99;100495.72;5076090;28;20021;-59
2022/11/09 05:53:12;;;;;;;3.17;1.20;;;;;;;19.02;54.16;100501.28;5075764;28;20354;-59
2022/11/09 05:55:37;;;;;;;3.03;1.63;;;;;;;18.96;54.08;100497.44;5074628;28;20117;-60
2022/11/09 05:58:03;;;;;;;2.58;1.40;;;;;;;19.03;54.21;100495.72;5077016;28;20033;-60
2022/11/09 06:00:29;;;;;;;2.40;1.40;;;;;;;19.02;54.29;100503.97;5074269;28;20082;-59
2022/11/09 06:03:03;;;;;;;1.95;1.20;;;;;;;19.02;54.23;100493.19;5075403;28;20246;-60
2022/11/09 06:05:28;;;;;;;1.80;1.20;;;;;;;19.02;54.14;100493.19;5076091;28;20061;-59
2022/11/09 06:07:54;;;;;;;1.58;1.13;;;;;;;19.02;54.05;100496.72;5076516;28;20051;-59
2022/11/09 06:10:19;;;;;;;2.42;1.45;;;;;;;19.02;54.31;100490.50;5072116;28;20036;-60
2022/11/09 06:12:49;;;;;;;3.53;1.55;;;;;;;19.00;54.11;100493.38;5075467;28;20039;-60
2022/11/09 06:15:14;;;;;;;2.03;1.10;;;;;;;19.02;54.57;100496.72;5074734;28;20017;-59
2022/11/09 06:17:39;;;;;;;2.10;1.30;;;;;;;18.95;54.36;100491.22;5071758;28;20654;-59
2022/11/09 06:20:05;;;;;;;2.08;1.35;;;;;;;19.00;54.23;100493.38;5051183;28;20033;-59
2022/11/09 06:22:31;;;;;;;2.35;1.45;;;;;;;19.02;54.42;100503.97;5076564;28;20472;-59
2022/11/09 06:24:56;;;;;;;2.35;1.23;;;;;;;19.03;54.57;100502.94;5076959;28;20060;-58
2022/11/09 06:27:21;;;;;;;3.60;1.50;;;;;;;18.96;54.62;100495.59;5085299;28;20024;-59
2022/11/09 06:29:46;;;;;;;2.75;1.27;;;;;;;19.03;54.66;100511.03;5078505;28;20029;-58
2022/11/09 06:32:12;;;;;;;1.52;1.10;;;;;;;18.97;54.46;100501.81;5074795;28;20480;-59
2022/11/09 06:34:37;;;;;;;3.90;1.60;;;;;;;18.99;54.70;100505.19;5076180;28;20116;-58
2022/11/09 06:37:02;;;;;;;2.55;1.27;;;;;;;19.03;54.70;100511.88;5076581;28;20040;-59
2022/11/09 06:39:27;;;;;;;2.70;1.20;;;;;;;19.03;54.74;100519.97;5074242;28;20021;-59
2022/11/09 06:41:53;;;;;;;2.25;1.15;;;;;;;18.95;54.35;100515.47;5073744;28;20020;-59
2022/11/09 06:44:18;;;;;;;3.33;1.45;;;;;;;18.98;54.58;100522.34;5075166;28;20013;-56
2022/11/09 06:46:43;;;;;;;2.67;1.48;;;;;;;19.05;54.74;100527.88;5070164;28;20055;-59
2022/11/09 06:49:10;;;;;;;2.65;1.42;;;;;;;19.05;54.91;100533.25;5071970;28;20020;-59
2022/11/09 06:51:35;;;;;;;4.18;1.42;;;;;;;19.04;55.02;100534.28;5084206;28;20024;-58
2022/11/09 06:54:01;;;;;;;1.58;1.00;;;;;;;19.03;54.76;100536.13;5084059;28;20044;-58
2022/11/09 06:56:26;;;;;;;2.95;1.20;;;;;;;19.05;54.89;100534.09;5081909;28;20028;-60
2022/11/09 06:58:52;;;;;;;2.72;1.20;;;;;;;19.02;55.03;100536.28;5082626;28;20080;-59
2022/11/09 07:01:18;;;;;;;2.40;1.25;;;;;;;19.00;55.44;100539.19;5082611;28;20032;-59
2022/11/09 07:03:43;;;;;;;2.60;1.17;;;;;;;19.06;55.41;100546.53;5083574;28;20056;-59
2022/11/09 07:06:10;;;;;;;2.72;1.23;;;;;;;19.06;55.39;100543.84;5076980;28;20055;-60
2022/11/09 07:08:36;;;;;;;3.30;1.33;;;;;;;19.06;55.22;100534.94;5068963;28;20060;-59
2022/11/09 07:11:12;;;;;;;1.65;1.10;;;;;;;19.06;55.11;100551.94;5079811;28;20036;-59
2022/11/09 07:13:38;;;;;;;2.72;1.48;;;;;;;19.07;55.19;100548.22;5058915;28;20615;-59
2022/11/09 07:16:04;;;;;;;2.80;1.50;;;;;;;19.08;55.08;100546.38;5083245;28;20034;-59
2022/11/09 07:18:30;;;;;;;2.88;1.20;;;;;;;19.08;54.94;100552.59;5075518;28;20393;-59
2022/11/09 07:20:55;;;;;;;1.35;1.10;;;;;;;19.09;55.04;100550.75;5076198;28;20030;-59
2022/11/09 07:23:20;;;;;;;3.97;1.40;;;;;;;19.03;55.35;100533.44;5073060;28;20079;-60
2022/11/09 07:25:45;;;;;;;5.10;1.50;;;;;;;19.10;55.23;100555.94;5080635;28;20024;-60
2022/11/09 07:28:11;;;;;;;2.25;1.27;;;;;;;19.11;54.80;100557.63;5084205;28;20035;-59
2022/11/09 07:30:37;;;;;;;2.22;1.30;;;;;;;19.11;55.08;100552.22;5083885;28;20032;-59
2022/11/09 07:33:03;;;;;;;2.40;1.10;;;;;;;19.11;54.66;100567.56;5083692;28;20032;-59
2022/11/09 07:35:29;;;;;;;2.50;1.25;;;;;;;19.07;54.86;100564.38;5079858;28;20038;-59
2022/11/09 07:37:58;;;;;;;2.67;1.20;;;;;;;19.05;54.56;100552.94;5073327;28;20088;-59
2022/11/09 07:40:23;;;;;;;2.83;1.52;;;;;;;19.12;54.68;100571.94;5082737;28;20028;-60
2022/11/09 07:42:49;;;;;;;3.05;1.30;;;;;;;19.13;54.78;100573.63;5083436;28;20039;-59
2022/11/09 07:45:14;;;;;;;1.98;1.20;;;;;;;19.09;54.73;100558.81;5082351;28;20021;-60
2022/11/09 07:47:39;;;;;;;3.70;1.70;;;;;;;19.10;53.49;100576.66;5065201;28;20065;-59
2022/11/09 07:50:05;;;;;;;7.20;2.28;;;;;;;19.05;52.66;100571.81;5081491;28;20033;-58
2022/11/09 07:52:30;;;;;;;7.28;1.85;;;;;;;19.02;53.68;100572.16;5083358;28;20096;-60
2022/11/09 07:54:55;;;;;;;6.32;2.03;;;;;;;18.79;53.70;100544.34;5080097;28;20711;-60
2022/11/09 07:57:21;;;;;;;5.90;1.70;;;;;;;19.02;53.92;100582.94;5082531;28;20032;-59
2022/11/09 07:59:46;;;;;;;5.07;1.80;;;;;;;19.10;53.68;100582.06;5082283;28;20025;-60
2022/11/09 08:02:11;;;;;;;5.88;1.88;;;;;;;19.14;53.72;100583.38;5083061;28;20047;-59
2022/11/09 08:04:36;;;;;;;5.75;1.92;;;;;;;19.10;53.72;100568.59;5082792;28;20112;-58
2022/11/09 08:07:02;;;;;;;6.97;1.85;;;;;;;19.21;53.75;100576.28;5082933;28;20036;-60
2022/11/09 08:09:27;;;;;;;5.47;1.60;;;;;;;19.23;54.10;100585.84;5076749;28;20073;-60
2022/11/09 08:11:52;;;;;;;3.53;1.50;;;;;;;19.25;53.55;100580.28;5082891;28;20013;-59
2022/11/09 08:14:18;;;;;;;4.40;2.05;;;;;;;19.26;53.74;100579.25;5070326;28;20039;-59
2022/11/09 08:16:43;;;;;;;2.55;1.65;;;;;;;19.26;53.90;100581.13;5076344;28;20104;-59
2022/11/09 08:19:09;;;;;;;3.30;1.40;;;;;;;19.25;54.11;100585.69;5068368;28;20390;-59
2022/11/09 08:21:35;;;;;;;3.50;1.40;;;;;;;19.25;53.65;100572.19;5063341;28;20033;-58
2022/11/09 08:24:01;;;;;;;3.83;1.25;;;;;;;19.25;53.69;100582.97;5072704;28;20021;-59
2022/11/09 08:26:26;;;;;;;4.47;1.38;;;;;;;19.28;53.60;100592.53;5071821;28;20085;-60
2022/11/09 08:28:51;;;;;;;4.05;1.60;;;;;;;19.29;53.63;100592.38;5073521;28;20028;-59
2022/11/09 08:31:16;;;;;;;6.68;2.25;;;;;;;19.32;53.33;100599.25;5069788;28;20048;-60
2022/11/09 08:33:41;;;;;;;4.35;1.80;;;;;;;19.35;53.33;100590.81;5073553;28;20025;-60
2022/11/09 08:36:11;;;;;;;3.75;1.83;;;;;;;19.39;53.25;100597.53;5072506;28;20047;-59
2022/11/09 08:38:37;;;;;;;4.60;2.28;;;;;;;19.42;53.27;100587.25;5071525;28;20029;-60
2022/11/09 08:41:02;;;;;;;3.78;1.48;;;;;;;19.45;53.18;100596.81;5058796;28;20176;-60
2022/11/09 08:43:27;;;;;;;6.63;1.75;;;;;;;19.52;53.25;100594.25;5079519;28;20031;-60
2022/11/09 08:45:53;;;;;;;3.92;1.70;;;;;;;19.52;53.20;100588.84;5070753;28;20028;-60
2022/11/09 08:48:18;;;;;;;3.80;1.73;;;;;;;19.57;52.87;100589.97;5055372;28;20035;-60
2022/11/09 08:50:43;;;;;;;4.72;2.10;;;;;;;19.61;52.99;100596.72;5079693;28;20032;-59
2022/11/09 08:53:08;;;;;;;6.63;1.65;;;;;;;19.63;53.01;100596.56;5082994;28;20032;-60
2022/11/09 08:55:34;;;;;;;5.30;1.70;;;;;;;19.67;53.16;100597.88;5082370;28;20050;-60
2022/11/09 08:58:01;;;;;;;5.05;1.70;;;;;;;19.54;52.64;100579.56;5084048;28;20461;-59
2022/11/09 09:00:26;;;;;;;5.22;1.70;;;;;;;19.44;52.59;100560.91;5086419;28;20059;-60
2022/11/09 09:02:52;;;;;;;3.83;2.13;;;;;;;19.71;52.72;100600.03;5086481;28;20028;-59
2022/11/09 09:05:18;;;;;;;3.70;1.92;;;;;;;19.73;52.53;100610.63;5086192;28;20077;-59
2022/11/09 09:07:43;;;;;;;3.97;1.50;;;;;;;19.72;52.40;100608.94;5068974;28;20402;-59
2022/11/09 09:10:08;;;;;;;4.30;1.20;;;;;;;19.72;52.79;100607.09;5086612;28;20071;-59
2022/11/09 09:12:34;;;;;;;3.83;1.70;;;;;;;19.72;52.46;100611.66;5086976;28;20072;-59
2022/11/09 09:14:59;;;;;;;3.35;1.90;;;;;;;19.57;52.45;100584.59;5086352;28;20032;-58
2022/11/09 09:17:24;;;;;;;3.45;1.55;;;;;;;19.61;52.57;100594.03;5086842;28;20078;-59
2022/11/09 09:19:50;;;;;;;3.35;1.60;;;;;;;19.73;52.42;100610.63;5067557;28;20072;-59
2022/11/09 09:22:15;;;;;;;3.53;1.40;;;;;;;19.64;52.57;100592.84;5066422;28;20085;-59
2022/11/09 09:24:40;;;;;;;2.72;1.30;;;;;;;19.72;52.61;100608.94;5066542;28;20528;-59
2022/11/09 09:27:06;;;;;;;3.42;1.58;;;;;;;19.62;52.94;100600.25;5066646;28;20025;-59
2022/11/09 09:29:31;;;;;;;3.45;1.50;;;;;;;19.71;52.36;100621.59;5066315;28;20025;-59
2022/11/09 09:31:56;;;;;;;5.40;2.00;;;;;;;19.72;52.78;100623.28;5066531;28;20460;-57
2022/11/09 09:34:22;;;;;;;3.25;2.13;;;;;;;19.59;52.02;100598.75;5065709;28;20208;-58
2022/11/09 09:36:47;;;;;;;7.10;2.40;;;;;;;19.70;52.64;100619.06;5066505;28;20119;-60
2022/11/09 09:39:12;;;;;;;4.50;1.92;;;;;;;19.68;52.54;100629.22;5066383;28;20028;-60
2022/11/09 09:41:53;;;;;;;4.65;2.35;;;;;;;19.68;52.56;100618.41;5065848;28;20033;-59
2022/11/09 09:44:21;;;;;;;5.60;2.30;;;;;;;19.64;52.50;100609.00;5066203;28;20210;-60
2022/11/09 09:47:19;;;;;;;3.63;2.30;;;;;;;19.67;52.77;100622.16;5065689;28;20059;-60
2022/11/09 09:49:58;;;;;;;5.97;2.85;;;;;;;19.62;52.53;100616.44;5066912;28;20039;-61
2022/11/09 09:52:57;;;;;;;3.47;2.20;;;;;;;19.65;52.41;100622.31;5086167;28;20051;-59
2022/11/09 09:55:46;;;;;;;5.25;3.30;;;;;;;19.59;52.64;100623.00;5086061;28;20894;-59
2022/11/09 09:58:15;;;;;;;3.17;2.20;;;;;;;19.38;52.69;100594.00;5068259;28;20088;-59
2022/11/09 10:00:42;;;;;;;3.88;2.40;;;;;;;19.59;52.44;100635.66;5085057;28;20107;-59
2022/11/09 10:03:16;;;;;;;4.60;2.60;;;;;;;19.67;52.45;100638.31;5067622;28;20074;-59
2022/11/09 10:05:57;;;;;;;4.60;2.35;;;;;;;19.40;52.24;100600.03;5085293;28;20500;-59
2022/11/09 10:08:56;;;;;;;3.70;2.60;;;;;;;19.68;52.21;100640.84;5067449;28;20414;-59
2022/11/09 10:11:31;;;;;;;4.15;2.13;;;;;;;19.62;52.40;100633.44;5085729;28;20036;-59
2022/11/09 10:14:06;;;;;;;6.00;2.60;;;;;;;19.71;52.08;100645.03;5086076;28;20039;-57
2022/11/09 10:16:47;;;;;;;5.57;2.72;;;;;;;19.70;52.33;100644.19;5067357;28;20024;-59
2022/11/09 10:19:28;;;;;;;6.15;2.78;;;;;;;19.70;52.59;100649.56;5051289;28;20124;-58
2022/11/09 10:22:11;;;;;;;3.90;2.15;;;;;;;19.71;52.14;100645.88;5065390;28;20505;-59
2022/11/09 10:24:47;;;;;;;5.13;2.83;;;;;;;19.70;52.14;100646.88;5047803;28;20044;-58
2022/11/09 10:27:35;;;;;;;3.58;2.20;;;;;;;19.70;52.48;100646.03;5047715;28;20025;-59
2022/11/09 10:30:06;;;;;;;4.25;2.38;;;;;;;19.68;52.67;100640.00;5064869;28;20040;-59
2022/11/09 10:32:32;;;;;;;4.95;2.60;;;;;;;19.68;52.29;100643.53;5047618;28;20600;-59
2022/11/09 10:35:13;;;;;;;5.20;2.10;;;;;;;19.67;52.65;100630.25;5064795;28;20036;-59
2022/11/09 10:37:41;;;;;;;4.07;2.20;;;;;;;19.67;52.49;100651.81;5065410;28;20473;-59
2022/11/09 10:40:20;;;;;;;3.95;2.00;;;;;;;19.65;52.62;100645.75;5065058;28;20032;-58
2022/11/09 10:42:50;;;;;;;;;;;;;;;19.66;52.37;100640.16;5065649;28;20091;-58
2022/11/09 10:45:36;;;;;;;4.80;2.25;;;;;;;19.65;52.60;100643.88;5064794;28;19908;-59
2022/11/09 10:48:02;;;;;;;4.68;1.90;;;;;;;19.66;52.42;100645.56;5054968;28;20028;-58
2022/11/09 10:50:41;;;;;;;3.40;2.15;;;;;;;19.66;52.53;100640.16;5084670;28;20040;-58
2022/11/09 10:53:14;;;;;;;3.78;2.05;;;;;;;19.67;52.67;100630.25;5067173;28;20036;-57
2022/11/09 10:55:53;;;;;;;5.05;2.45;;;;;;;19.59;52.53;100635.66;5084807;28;20096;-58
2022/11/09 10:58:34;;;;;;;4.80;2.47;;;;;;;19.67;52.77;100649.97;5085383;28;20028;-58
2022/11/09 11:01:02;;;;;;;4.60;2.40;;;;;;;19.66;52.59;100637.47;5084592;28;20027;-58
2022/11/09 11:03:28;;;;;;;4.55;2.22;;;;;;;19.66;52.49;100640.16;5084473;28;20499;-59
2022/11/09 11:05:59;;;;;;;4.18;1.98;;;;;;;19.66;52.29;100645.56;5084382;28;20505;-58
2022/11/09 11:08:29;;;;;;;4.32;2.13;;;;;;;19.69;52.67;100647.06;5085004;28;20032;-58
2022/11/09 11:11:33;;;;;;;4.18;2.15;;;;;;;19.69;52.83;100655.16;5084378;28;20060;-59
2022/11/09 11:14:18;;;;;;;3.08;2.00;;;;;;;19.69;52.54;100660.56;5022997;28;20071;-58
2022/11/09 11:16:44;;;;;;;4.45;2.05;;;;;;;19.59;52.54;100644.59;5046165;28;20032;-59
2022/11/09 11:19:36;;;;;;;4.80;2.17;;;;;;;19.66;52.50;100653.66;5064033;28;20055;-58
2022/11/09 11:22:18;;;;;;;3.28;2.10;;;;;;;19.64;52.63;100658.41;5065821;28;20086;-59
2022/11/09 11:24:52;;;;;;;4.45;1.90;;;;;;;19.62;52.45;100652.31;5084464;28;20029;-58
2022/11/09 11:27:47;;;;;;;3.15;1.85;;;;;;;19.62;52.86;100662.28;5066303;28;20040;-59